Time;durP1;ratioP1;P1;durP2;ratioP2;P2;SDS_P1;SDS_P2;PMS_P1;PMS_P2;Temp;Humidity;BMP_temperature;BMP_pressure;BME280_temperature;BME280_humidity;BME280_pressure;Samples;Min_cycle;Max_cycle;Signal;HPM_P1;HPM_P2
2021/07/24 00:02:04;;;;;;;;;;;19.70;79.90;;;19.53;71.01;100177.19;5050473;28;20138;-81
2021/07/24 00:04:31;;;;;;;11.30;6.90;;;19.70;80.00;;;19.53;70.82;100178.03;5050046;28;19967;-81
2021/07/24 00:07:00;;;;;;;12.40;6.60;;;19.70;79.90;;;19.49;71.23;100176.03;5048961;28;20124;-81
2021/07/24 00:09:30;;;;;;;11.38;6.63;;;19.70;80.40;;;19.47;71.46;100172.69;5049806;28;20634;-81
2021/07/24 00:11:57;;;;;;;13.90;6.68;;;19.60;80.70;;;19.45;71.22;100159.13;5049609;28;20122;-81
2021/07/24 00:14:25;;;;;;;14.35;7.05;;;19.60;80.60;;;19.42;71.38;100159.66;5049890;28;20049;-81
2021/07/24 00:16:53;;;;;;;17.25;7.40;;;19.60;80.80;;;19.42;71.26;100164.31;5048826;28;20133;-81
2021/07/24 00:19:21;;;;;;;11.30;7.30;;;19.60;80.50;;;19.42;71.29;100161.53;5049783;28;20142;-81
2021/07/24 00:21:48;;;;;;;12.82;6.82;;;19.60;80.90;;;19.40;71.44;100161.81;5049801;28;20072;-81
2021/07/24 00:24:15;;;;;;;11.27;6.50;;;19.50;81.00;;;19.36;71.66;100155.09;5049701;28;20045;-81
2021/07/24 00:26:43;;;;;;;12.00;6.88;;;19.40;81.40;;;19.35;71.82;100161.72;5048952;28;20152;-81
2021/07/24 00:29:10;;;;;;;11.27;6.63;;;19.40;81.50;;;19.35;71.72;100153.47;5049390;28;20048;-81
2021/07/24 00:31:38;;;;;;;9.35;6.45;;;19.40;81.30;;;19.32;71.87;100154.81;5049404;28;20072;-81
2021/07/24 00:34:06;;;;;;;10.15;7.10;;;19.40;81.50;;;19.30;71.81;100148.69;5049174;28;20059;-81
2021/07/24 00:36:34;;;;;;;14.35;7.28;;;19.40;81.80;;;19.29;71.72;100138.75;5030541;28;20052;-81
2021/07/24 00:39:01;;;;;;;11.10;7.20;;;19.40;81.50;;;19.29;71.93;100146.19;5049091;28;20128;-81
2021/07/24 00:41:38;;;;;;;11.32;7.03;;;19.30;81.60;;;19.27;72.18;100140.09;5049195;28;20063;-81
2021/07/24 00:44:07;;;;;;;10.45;7.13;;;19.30;82.00;;;19.25;72.04;100128.47;5048989;28;20068;-81
2021/07/24 00:46:37;;;;;;;14.52;7.25;;;19.30;81.90;;;19.25;72.07;100125.72;5030543;28;20049;-81
2021/07/24 00:49:06;;;;;;;15.32;7.47;;;19.40;81.70;;;19.25;71.99;100121.03;5049246;28;20095;-81
2021/07/24 00:51:51;;;;;;;12.52;7.68;;;19.40;81.50;;;19.23;72.35;100116.81;5031270;28;20455;-81
2021/07/24 00:54:20;;;;;;;10.77;7.50;;;19.30;81.90;;;19.22;72.23;100113.25;5031307;28;20063;-80
2021/07/24 00:56:50;;;;;;;11.10;7.60;;;19.30;81.70;;;19.17;72.38;100115.09;5048096;28;20033;-81
2021/07/24 00:59:17;;;;;;;12.18;7.93;;;19.30;81.70;;;19.17;72.15;100117.84;5048878;28;20391;-81
2021/07/24 01:01:46;;;;;;;14.40;8.35;;;19.30;81.70;;;19.17;72.04;100118.66;5030826;28;20099;-81
2021/07/24 01:04:15;;;;;;;12.95;7.07;;;19.30;81.50;;;19.17;72.24;100120.59;5030991;28;20144;-81
2021/07/24 01:06:44;;;;;;;12.95;7.30;;;19.30;81.90;;;19.15;72.29;100123.59;5028948;28;20138;-81
2021/07/24 01:09:12;;;;;;;15.68;7.65;;;19.30;82.10;;;19.16;72.32;100127.22;5029401;28;20706;-81
2021/07/24 01:11:40;;;;;;;14.63;7.57;;;19.20;82.10;;;19.14;72.32;100127.47;5028818;28;20045;-81
2021/07/24 01:14:08;;;;;;;14.65;8.18;;;19.20;82.00;;;19.09;72.68;100121.84;5011157;28;20045;-81
2021/07/24 01:16:36;;;;;;;11.40;7.85;;;19.20;82.50;;;19.07;72.80;100124.84;5010419;28;20543;-81
2021/07/24 01:19:16;;;;;;;12.70;7.82;;;19.10;82.50;;;19.06;72.74;100123.19;5011027;28;20073;-81
2021/07/24 01:21:46;;;;;;;13.30;7.65;;;19.10;82.80;;;19.05;72.84;100124.28;5029219;28;20494;-81
2021/07/24 01:24:14;;;;;;;12.85;7.75;;;19.10;82.80;;;19.02;72.97;100115.66;5011047;28;20517;-81
2021/07/24 01:26:44;;;;;;;11.98;7.65;;;19.00;83.00;;;18.98;73.12;100106.22;5010674;28;20050;-81
2021/07/24 01:29:15;;;;;;;14.55;8.07;;;19.00;83.30;;;18.95;73.25;100099.28;5011002;28;20068;-81
2021/07/24 01:31:43;;;;;;;11.88;7.50;;;18.90;83.50;;;18.94;73.33;100092.09;5011251;28;20054;-81
2021/07/24 01:34:12;;;;;;;13.93;8.43;;;18.90;83.70;;;18.93;73.33;100095.94;5010717;28;20524;-81
2021/07/24 01:36:39;;;;;;;14.35;8.57;;;18.90;83.90;;;18.92;73.30;100102.53;5027954;28;20375;-81
2021/07/24 01:39:12;;;;;;;15.32;7.78;;;18.80;84.00;;;18.90;73.59;100110.22;5010872;28;20049;-81
2021/07/24 01:41:45;;;;;;;11.88;7.40;;;18.80;84.00;;;18.88;73.53;100115.16;5028603;28;20041;-81
2021/07/24 01:44:13;;;;;;;14.23;8.10;;;18.80;84.30;;;18.84;73.59;100109.31;5010850;28;20450;-81
2021/07/24 01:46:42;;;;;;;14.18;8.18;;;18.70;84.50;;;18.83;73.52;100112.31;5027709;28;20045;-81
2021/07/24 01:55:09;;;;;;;10.25;7.68;;;18.60;84.60;;;18.73;73.67;100112.94;5028553;28;20433;-81
2021/07/24 01:57:47;;;;;;;13.60;7.60;;;18.50;84.70;;;18.70;73.56;100106.00;5010134;28;20119;-81
2021/07/24 02:00:18;;;;;;;12.77;7.78;;;18.50;84.90;;;18.67;73.79;100109.25;4989484;23;20171;-77
2021/07/24 02:02:52;;;;;;;12.63;8.48;;;18.50;85.20;;;18.65;73.96;100111.41;4947962;28;20047;-79
2021/07/24 02:05:42;;;;;;;14.13;8.57;;;18.40;85.10;;;18.61;74.35;100107.50;4964036;28;20626;-77
2021/07/24 02:08:17;;;;;;;13.75;7.97;;;18.40;85.50;;;18.62;74.13;100100.06;4964871;28;20070;-78
2021/07/24 02:10:46;;;;;;;14.60;8.27;;;18.40;85.60;;;18.58;74.35;100099.72;4965484;28;20149;-78
2021/07/24 02:13:15;;;;;;;13.13;8.70;;;18.40;85.70;;;18.56;74.48;100104.63;4965651;28;20054;-77
2021/07/24 02:15:43;;;;;;;15.35;8.50;;;18.30;86.00;;;18.58;74.61;100107.16;4965392;28;20038;-79
2021/07/24 02:18:16;;;;;;;10.55;7.50;;;18.30;86.10;;;18.55;74.81;100114.00;4965334;28;20058;-79
2021/07/24 02:20:46;;;;;;;15.70;8.52;;;18.30;86.20;;;18.51;74.76;100118.34;4969886;28;20057;-80
2021/07/24 02:23:14;;;;;;;12.70;8.10;;;18.30;86.30;;;18.49;74.85;100117.75;4985166;28;20089;-78
2021/07/24 02:25:41;;;;;;;13.85;8.52;;;18.20;86.30;;;18.46;75.20;100107.22;4968834;28;20051;-78
2021/07/24 02:28:10;;;;;;;14.35;9.13;;;18.20;86.40;;;18.44;75.17;100098.34;4984392;28;20075;-76
2021/07/24 02:30:38;;;;;;;14.10;8.70;;;18.20;86.50;;;18.45;75.15;100094.50;4970085;28;20043;-75
2021/07/24 02:33:05;;;;;;;14.30;8.30;;;18.20;86.40;;;18.45;75.14;100094.50;4968995;28;20066;-79
2021/07/24 02:35:33;;;;;;;12.90;7.78;;;18.20;86.60;;;18.39;75.54;100090.00;4970026;28;20039;-77
2021/07/24 02:38:16;;;;;;;14.40;8.27;;;18.20;86.70;;;18.40;75.40;100080.66;4969861;28;20076;-77
2021/07/24 02:40:47;;;;;;;15.13;8.48;;;18.10;86.90;;;18.39;75.57;100074.31;4984661;28;20046;-80
2021/07/24 02:43:17;;;;;;;11.77;8.18;;;18.10;86.90;;;18.40;75.51;100070.47;4976045;28;20051;-79
2021/07/24 02:45:45;;;;;;;14.00;8.88;;;18.10;87.00;;;18.39;75.26;100068.81;4967790;28;20045;-77
2021/07/24 02:48:13;;;;;;;13.75;8.55;;;18.10;86.80;;;18.36;75.57;100066.53;4969131;28;20088;-78
2021/07/24 02:51:10;;;;;;;13.73;8.40;;;18.10;87.00;;;18.32;75.81;100055.16;4982992;28;20050;-79
2021/07/24 02:53:38;;;;;;;12.95;8.50;;;18.10;87.00;;;18.31;75.79;100049.91;4983675;28;20058;-79
2021/07/24 02:56:07;;;;;;;14.00;8.07;;;18.00;87.10;;;18.31;75.74;100045.22;4982666;28;20055;-80
2021/07/24 02:58:40;;;;;;;13.05;8.30;;;18.00;87.00;;;18.28;75.90;100050.41;4980760;28;20062;-80
2021/07/24 03:01:08;;;;;;;14.30;8.40;;;18.00;87.10;;;18.26;75.92;100042.38;4984560;28;20051;-80
2021/07/24 03:03:35;;;;;;;13.82;9.13;;;18.00;87.30;;;18.24;75.57;100039.06;4968794;28;20061;-80
2021/07/24 03:06:03;;;;;;;15.05;8.40;;;17.90;87.40;;;18.24;75.94;100027.16;4968745;28;20050;-80
2021/07/24 03:08:30;;;;;;;15.38;8.90;;;17.90;87.70;;;18.19;76.34;100016.91;4968393;28;20112;-80
2021/07/24 03:10:57;;;;;;;15.07;8.88;;;18.00;87.70;;;18.14;76.42;100014.06;4969617;28;20125;-80
2021/07/24 03:13:24;;;;;;;13.65;8.70;;;17.90;87.60;;;18.10;76.39;100004.63;4969584;28;20130;-80
2021/07/24 03:15:53;;;;;;;14.90;9.30;;;17.90;87.70;;;18.13;76.39;99995.88;4968959;28;20724;-80
2021/07/24 03:18:20;;;;;;;13.00;8.50;;;17.90;87.70;;;18.10;76.64;99994.44;4969385;28;20104;-80
2021/07/24 03:20:47;;;;;;;14.75;8.95;;;17.90;87.90;;;18.13;76.63;100004.13;4969372;28;20065;-80
2021/07/24 03:23:15;;;;;;;13.70;9.13;;;17.90;88.00;;;18.13;76.75;100009.66;4969375;28;20081;-80
2021/07/24 03:25:42;;;;;;;15.82;9.48;;;17.90;88.00;;;18.09;76.80;100002.97;4969238;28;20100;-80
2021/07/24 03:28:10;;;;;;;13.30;8.95;;;17.90;88.00;;;18.07;76.67;100016.16;4968683;28;20383;-80
2021/07/24 03:30:39;;;;;;;15.02;8.80;;;17.80;87.90;;;18.04;76.59;100016.63;4968112;28;20050;-80
2021/07/24 03:33:07;;;;;;;15.63;9.05;;;17.80;88.10;;;18.01;76.59;100017.09;4969445;28;20065;-80
2021/07/24 03:35:35;;;;;;;17.25;9.50;;;17.80;88.00;;;18.03;76.75;100015.81;4969335;28;20146;-80
2021/07/24 03:38:05;;;;;;;11.25;8.07;;;17.70;88.30;;;18.00;76.58;100019.03;4968620;28;20042;-80
2021/07/24 03:40:33;;;;;;;15.85;9.30;;;17.70;88.10;;;17.99;76.52;100017.34;4969302;28;20100;-80
2021/07/24 03:43:00;;;;;;;15.65;9.10;;;17.70;88.20;;;17.96;76.66;100010.44;4969293;28;20054;-80
2021/07/24 03:45:27;;;;;;;14.00;9.00;;;17.70;88.40;;;17.96;76.74;100015.94;4968957;28;20757;-80
2021/07/24 03:47:55;;;;;;;14.40;8.88;;;17.70;88.30;;;17.96;76.83;100015.94;4968388;28;20118;-80
2021/07/24 03:50:23;;;;;;;17.75;9.15;;;17.70;88.40;;;17.93;76.84;100021.94;4968929;28;20126;-80
2021/07/24 03:52:50;;;;;;;12.57;8.70;;;17.70;88.40;;;17.90;76.85;100014.16;4969023;28;20432;-80
2021/07/24 03:55:18;;;;;;;12.55;8.57;;;17.70;88.30;;;17.90;76.93;100016.91;4968960;28;20126;-80
2021/07/24 03:57:46;;;;;;;11.75;9.00;;;17.70;88.40;;;17.90;76.96;100016.91;4966599;28;20051;-80
2021/07/24 04:00:14;;;;;;;13.93;9.27;;;17.60;88.30;;;17.90;76.97;100016.09;4968651;28;20043;-80
2021/07/24 04:02:46;;;;;;;14.02;8.93;;;17.70;88.60;;;17.91;77.05;100018.56;4968855;28;20070;-80
2021/07/24 04:05:13;;;;;;;17.40;9.38;;;17.70;88.50;;;17.88;77.46;100010.81;4969175;28;20054;-80
2021/07/24 04:07:42;;;;;;;15.00;9.52;;;17.70;88.40;;;17.86;77.37;100009.38;4968317;28;20047;-80
2021/07/24 04:10:12;;;;;;;14.95;8.77;;;17.70;88.40;;;17.88;77.46;100019.09;4968654;28;20078;-80
2021/07/24 04:12:41;;;;;;;15.00;9.52;;;17.80;88.30;;;17.89;77.67;100006.16;4968892;28;20042;-80
2021/07/24 04:15:10;;;;;;;12.63;9.13;;;17.80;88.30;;;17.88;77.66;100008.06;4968623;28;20066;-80
2021/07/24 04:17:37;;;;;;;16.83;9.73;;;17.90;88.30;;;17.90;77.77;100002.31;4967779;28;20532;-80
2021/07/24 04:20:07;;;;;;;15.18;9.40;;;17.90;88.20;;;17.91;77.93;99995.72;4967189;28;20461;-80
2021/07/24 04:22:34;;;;;;;18.60;9.10;;;18.00;88.00;;;17.94;77.82;99998.81;4967147;28;20047;-80
2021/07/24 04:25:02;;;;;;;16.40;9.40;;;18.00;87.60;;;17.94;77.94;99984.22;4983162;28;20138;-80
2021/07/24 04:27:29;;;;;;;15.50;10.15;;;18.10;87.40;;;17.95;78.11;99991.38;4967660;28;20491;-80
2021/07/24 04:29:59;;;;;;;18.42;10.35;;;18.10;87.60;;;17.96;78.09;99991.16;4968349;28;20753;-80
2021/07/24 04:32:26;;;;;;;15.43;10.00;;;18.20;87.40;;;18.00;78.12;99987.91;4968174;28;20394;-80
2021/07/24 04:34:53;;;;;;;14.82;9.82;;;18.20;87.40;;;17.98;78.64;99990.91;4968197;28;20050;-80
2021/07/24 04:37:21;;;;;;;15.57;10.13;;;18.20;87.30;;;18.02;78.54;99994.84;4967549;28;20038;-77
2021/07/24 04:39:48;;;;;;;15.77;9.30;;;18.30;87.70;;;18.03;78.90;99992.91;4968392;28;20059;-78
2021/07/24 04:42:16;;;;;;;16.95;10.80;;;18.30;87.80;;;18.05;78.97;99993.50;4967999;28;20051;-77
2021/07/24 04:44:44;;;;;;;20.90;10.88;;;18.40;87.80;;;18.07;79.45;99999.63;4968312;28;20045;-78
2021/07/24 04:47:11;;;;;;;15.35;10.05;;;18.50;87.70;;;18.05;79.58;100001.75;4967481;28;20050;-78
2021/07/24 04:49:49;;;;;;;17.50;10.50;;;18.60;86.80;;;18.03;79.69;99998.41;4968112;28;20050;-77
2021/07/24 04:52:16;;;;;;;23.30;10.35;;;18.80;86.40;;;18.02;79.89;99994.84;4968105;28;20491;-77
2021/07/24 04:54:45;;;;;;;14.98;10.10;;;18.90;85.80;;;18.10;79.64;99993.59;4968376;28;20148;-77
2021/07/24 04:57:13;;;;;;;15.77;10.43;;;19.00;85.10;;;18.16;79.34;99982.44;4967191;28;20063;-78
2021/07/24 04:59:47;;;;;;;16.60;10.20;;;19.20;84.80;;;18.23;79.01;99987.78;4967956;28;20062;-78
2021/07/24 05:02:15;;;;;;;17.05;10.52;;;19.40;83.70;;;18.27;79.04;99980.69;4982023;28;20047;-78
2021/07/24 05:04:44;;;;;;;16.05;10.60;;;19.50;83.40;;;18.29;79.03;99988.72;4967832;28;20039;-78
2021/07/24 05:07:12;;;;;;;16.50;10.88;;;19.50;83.20;;;18.32;78.88;99985.47;4967206;28;20087;-78
2021/07/24 05:09:40;;;;;;;16.90;10.40;;;19.50;83.10;;;18.32;78.26;99986.28;4967886;28;20077;-78
2021/07/24 05:12:09;;;;;;;15.25;10.43;;;19.60;82.40;;;18.34;78.35;99975.84;4967989;28;20069;-78
2021/07/24 05:14:36;;;;;;;15.98;11.10;;;19.60;82.50;;;18.39;78.04;99971.50;4967944;28;20078;-78
2021/07/24 05:17:09;;;;;;;15.68;9.95;;;19.60;82.00;;;18.42;77.84;99968.28;4981786;28;20127;-78
2021/07/24 05:19:38;;;;;;;14.98;10.23;;;19.70;81.90;;;18.45;78.18;99968.59;4967770;28;20713;-77
2021/07/24 05:22:05;;;;;;;15.48;10.60;;;19.80;81.90;;;18.50;78.62;99978.88;4967748;28;20084;-78
2021/07/24 05:24:33;;;;;;;16.05;10.60;;;19.90;82.10;;;18.51;78.41;99967.59;4967635;28;20242;-78
2021/07/24 05:27:01;;;;;;;15.45;10.15;;;20.00;81.30;;;18.51;78.03;99962.09;4966981;28;20558;-78
2021/07/24 05:29:29;;;;;;;16.92;10.25;;;20.00;80.80;;;18.58;78.13;99961.06;4967384;28;20055;-78
2021/07/24 05:31:56;;;;;;;18.33;11.23;;;20.00;80.80;;;18.62;77.52;99956.72;4967587;28;20151;-78
2021/07/24 05:34:25;;;;;;;17.17;10.38;;;20.10;80.40;;;18.64;77.53;99949.91;4967412;28;20070;-78
2021/07/24 05:36:53;;;;;;;18.02;11.52;;;20.20;80.10;;;18.67;78.04;99946.63;4966777;28;20402;-78
2021/07/24 05:39:20;;;;;;;17.63;10.63;;;20.30;80.80;;;18.69;77.61;99936.16;4967466;28;20039;-78
2021/07/24 05:41:48;;;;;;;17.05;10.93;;;20.30;80.00;;;18.74;77.33;99939.00;4967439;28;20463;-78
2021/07/24 05:44:17;;;;;;;17.52;10.27;;;20.30;79.80;;;18.76;78.09;99936.84;4967646;28;20402;-78
2021/07/24 05:46:45;;;;;;;16.48;10.93;;;20.40;80.70;;;18.80;77.39;99931.69;4967016;28;20054;-78
2021/07/24 05:49:13;;;;;;;18.05;11.07;;;20.40;79.60;;;18.83;77.24;99927.56;4967469;28;20046;-78
2021/07/24 05:51:41;;;;;;;18.58;10.63;;;20.50;79.50;;;18.87;77.07;99937.03;4967611;28;20082;-78
2021/07/24 05:54:10;;;;;;;15.93;11.15;;;20.50;79.10;;;18.91;77.39;99932.69;4969042;28;20070;-79
2021/07/24 05:56:38;;;;;;;17.80;11.00;;;20.70;78.70;;;18.97;76.66;99930.84;4984793;28;20050;-79
2021/07/24 05:59:05;;;;;;;15.75;10.98;;;20.80;77.90;;;19.00;76.47;99931.16;4970564;28;20046;-79
2021/07/24 06:01:33;;;;;;;16.23;11.95;;;20.90;77.40;;;19.04;76.30;99929.56;4970711;28;20099;-79
2021/07/24 06:04:00;;;;;;;19.23;11.55;;;21.00;76.90;;;19.09;76.33;99923.25;4970478;28;20104;-80
2021/07/24 06:06:27;;;;;;;17.92;11.43;;;21.10;77.10;;;19.10;76.23;99914.72;4969877;28;20055;-79
2021/07/24 06:08:56;;;;;;;17.75;10.57;;;21.10;77.00;;;19.14;76.85;99910.38;4985228;28;20082;-79
2021/07/24 06:11:23;;;;;;;18.67;10.43;;;21.30;77.10;;;19.19;76.94;99906.84;4970486;28;20074;-79
2021/07/24 06:13:50;;;;;;;19.60;11.10;;;21.50;76.40;;;19.24;76.59;99915.19;4970491;28;20070;-79
2021/07/24 06:16:18;;;;;;;20.17;12.38;;;21.70;75.30;;;19.29;76.55;99914.44;4969922;28;20104;-79
2021/07/24 06:18:45;;;;;;;15.63;10.38;;;21.90;74.40;;;19.32;76.23;99906.47;4970522;28;20056;-79
2021/07/24 06:21:16;;;;;;;15.32;10.10;;;22.00;73.70;;;19.37;76.13;99907.63;4970502;28;20082;-79
2021/07/24 06:23:44;;;;;;;;;;;22.20;73.30;;;19.42;76.97;99916.78;4971016;28;20059;-79
2021/07/24 06:26:12;;;;;;;17.52;11.13;;;22.30;74.30;;;19.46;76.63;99917.94;4969699;28;19945;-79
2021/07/24 06:28:39;;;;;;;16.00;10.43;;;22.30;73.60;;;19.48;75.88;99909.41;4970200;28;20059;-79
2021/07/24 06:31:07;;;;;;;16.52;10.32;;;22.20;72.70;;;19.53;75.91;99913.06;4970010;28;20574;-79
2021/07/24 06:33:34;;;;;;;16.02;9.50;;;22.30;73.00;;;19.57;77.00;99918.88;4985053;28;20495;-79
2021/07/24 06:36:01;;;;;;;16.50;10.40;;;22.30;74.20;;;19.60;77.90;99901.81;4969339;28;20042;-80
2021/07/24 06:38:29;;;;;;;16.70;9.88;;;22.30;74.40;;;19.64;77.24;99902.94;4969863;28;20057;-79
2021/07/24 06:40:58;;;;;;;18.95;10.63;;;22.40;73.80;;;19.69;77.09;99899.41;4969851;28;20042;-79
2021/07/24 06:43:26;;;;;;;18.35;10.52;;;22.50;73.50;;;19.72;77.72;99905.28;4969878;28;20392;-80
2021/07/24 06:45:54;;;;;;;16.70;9.88;;;22.60;73.80;;;19.78;77.08;99892.38;4969573;28;20047;-79
2021/07/24 06:48:21;;;;;;;16.30;9.73;;;22.70;72.90;;;19.83;78.07;99889.63;4969894;28;20070;-79
2021/07/24 06:50:48;;;;;;;16.88;10.10;;;22.90;73.50;;;19.91;78.69;99896.63;4969897;28;20043;-79
2021/07/24 06:53:15;;;;;;;15.93;9.93;;;22.90;74.20;;;19.96;77.86;99890.31;4984932;28;20047;-79
2021/07/24 06:55:42;;;;;;;18.05;9.48;;;22.90;72.40;;;19.98;77.01;99886.19;4969849;28;20156;-79
2021/07/24 06:58:10;;;;;;;15.73;9.90;;;22.90;72.70;;;20.03;76.89;99893.69;4983928;28;20419;-80
2021/07/24 07:00:38;;;;;;;13.55;8.88;;;22.90;73.00;;;20.05;76.87;99883.22;4973152;28;20128;-80
2021/07/24 07:03:05;;;;;;;16.92;9.93;;;22.80;73.30;;;20.08;76.99;99885.44;4977940;28;20471;-80
2021/07/24 07:05:33;;;;;;;20.00;10.23;;;22.80;73.30;;;20.09;76.28;99887.94;4969377;28;20568;-79
2021/07/24 07:08:00;;;;;;;19.67;9.70;;;22.80;72.40;;;20.13;76.06;99891.03;4968835;28;20042;-80
2021/07/24 07:10:28;;;;;;;15.82;8.80;;;22.80;72.70;;;20.15;75.85;99886.06;4969435;28;20081;-79
2021/07/24 07:12:55;;;;;;;17.58;9.70;;;22.80;72.70;;;20.19;75.42;99875.31;4969458;28;20435;-79
2021/07/24 07:15:24;;;;;;;19.33;9.55;;;22.80;72.40;;;20.21;75.27;99873.94;4969455;28;20071;-80
2021/07/24 07:17:53;;;;;;;14.68;9.05;;;22.80;72.10;;;20.20;74.94;99866.78;4968542;28;20499;-79
2021/07/24 07:20:20;;;;;;;16.67;9.75;;;22.80;72.10;;;20.22;75.65;99861.81;4969394;28;20556;-80
2021/07/24 07:22:48;;;;;;;15.13;9.65;;;22.80;72.90;;;20.25;75.72;99858.50;4969443;28;20525;-79
2021/07/24 07:25:15;;;;;;;13.88;9.30;;;22.80;72.40;;;20.27;75.20;99848.00;4969447;28;20042;-80
2021/07/24 07:27:43;;;;;;;17.73;10.00;;;22.80;72.50;;;20.29;74.72;99850.50;4968543;28;20156;-80
2021/07/24 07:30:13;;;;;;;15.90;9.93;;;22.80;72.10;;;20.29;74.71;99845.00;4969256;28;20127;-80
2021/07/24 07:32:40;;;;;;;15.77;9.60;;;22.70;72.60;;;20.30;75.44;99832.84;4969250;28;20053;-80
2021/07/24 07:35:11;;;;;;;17.23;9.63;;;22.70;74.20;;;20.32;75.87;99833.41;4969109;28;20130;-80
2021/07/24 07:37:48;;;;;;;13.40;9.30;;;22.70;74.20;;;20.34;74.92;99824.88;4968584;28;20450;-81
2021/07/24 07:40:16;;;;;;;17.10;9.30;;;22.60;73.30;;;20.35;75.29;99823.75;4969067;28;20474;-81
2021/07/24 07:42:43;;;;;;;16.45;9.52;;;22.60;73.70;;;20.38;75.00;99814.94;4967689;28;20368;-81
2021/07/24 07:45:11;;;;;;;14.60;9.68;;;22.70;73.40;;;20.37;74.60;99824.31;4969053;28;20046;-80
2021/07/24 07:47:39;;;;;;;20.17;11.13;;;22.60;73.00;;;20.38;74.84;99818.53;4968398;28;20122;-80
2021/07/24 07:50:09;;;;;;;16.75;9.93;;;22.70;73.30;;;20.39;74.94;99813.81;4968798;28;20042;-81
2021/07/24 07:52:37;;;;;;;14.73;8.98;;;22.70;73.60;;;20.41;75.53;99811.63;4969051;28;20051;-79
2021/07/24 07:55:06;;;;;;;15.90;9.52;;;22.70;73.80;;;20.43;75.28;99807.50;4968793;28;20065;-79
2021/07/24 07:57:33;;;;;;;15.43;9.85;;;22.80;73.30;;;20.47;75.51;99805.88;4966740;28;20100;-79
2021/07/24 14:02:04;;;;;;;20.23;13.25;;;23.30;78.80;;;21.58;79.91;99835.38;4535161;22;20420;-86
2021/07/24 14:04:31;;;;;;;21.40;12.88;;;23.30;79.10;;;21.55;80.19;99824.84;5068911;28;20102;-85
2021/07/24 14:06:58;;;;;;;18.70;13.15;;;23.20;79.80;;;21.54;80.35;99823.19;5068401;28;20076;-86
2021/07/24 14:09:26;;;;;;;18.50;13.70;;;23.10;79.90;;;21.52;80.98;99836.50;5069093;28;20064;-85
2021/07/24 14:11:53;;;;;;;17.27;12.85;;;23.10;80.40;;;21.52;81.65;99830.94;5064173;28;20474;-86
2021/07/24 14:14:20;;;;;;;22.13;13.00;;;23.10;81.10;;;21.51;81.47;99826.50;5049368;28;20044;-86
2021/07/24 14:16:47;;;;;;;21.80;13.77;;;23.10;80.60;;;21.50;83.39;99822.91;5051864;28;20048;-86
2021/07/24 14:19:18;;;;;;;22.50;13.90;;;23.00;82.30;;;21.47;83.13;99829.00;5052721;28;20087;-86
2021/07/24 14:21:45;;;;;;;21.33;13.75;;;23.00;82.10;;;21.47;83.29;99834.53;5052815;28;20860;-86
2021/07/24 14:24:13;;;;;;;25.38;14.57;;;23.00;81.80;;;21.46;84.41;99835.66;5034707;28;20132;-86
2021/07/24 14:26:40;;;;;;;21.67;15.07;;;23.00;83.80;;;21.44;84.64;99833.16;5051995;28;20516;-86
2021/07/24 14:29:07;;;;;;;26.25;15.85;;;22.90;83.70;;;21.42;84.74;99835.34;5052613;28;20044;-86
2021/07/24 14:31:35;;;;;;;21.08;15.35;;;22.90;84.30;;;21.42;85.04;99842.81;5034503;28;20053;-86
2021/07/24 14:34:02;;;;;;;23.45;16.02;;;22.80;83.80;;;21.40;85.68;99850.53;5052487;28;20049;-86
2021/07/24 14:36:30;;;;;;;26.90;16.15;;;22.80;85.30;;;21.39;85.81;99848.88;5051726;28;20123;-85
2021/07/24 14:39:00;;;;;;;24.35;17.13;;;22.70;85.40;;;21.37;86.65;99868.53;5052230;28;20045;-86
2021/07/24 14:41:27;;;;;;;22.52;15.57;;;22.70;86.00;;;21.34;86.89;99868.22;5052098;28;20041;-86
2021/07/24 14:43:55;;;;;;;24.90;16.52;;;22.70;86.60;;;21.31;88.02;99864.09;5052389;28;20045;-85
2021/07/24 14:46:22;;;;;;;26.80;17.98;;;22.60;86.80;;;21.28;88.46;99868.25;5051348;28;20124;-86
2021/07/24 14:48:49;;;;;;;24.10;16.70;;;22.60;87.30;;;21.27;89.57;99866.56;5052200;28;20052;-86
2021/07/24 14:51:18;;;;;;;27.90;17.55;;;22.60;88.70;;;21.23;89.58;99867.38;5050607;28;20433;-86
2021/07/24 14:53:49;;;;;;;22.55;16.73;;;22.60;88.60;;;21.22;89.67;99865.72;5052049;28;20036;-86
2021/07/24 14:56:16;;;;;;;28.65;18.77;;;22.60;88.20;;;21.21;90.69;99869.56;5051505;28;20041;-86
2021/07/24 14:58:44;;;;;;;23.08;17.92;;;22.50;88.90;;;21.19;90.78;99863.47;5052028;28;20049;-86
2021/07/24 15:01:13;;;;;;;24.85;18.33;;;22.50;89.70;;;21.18;91.17;99864.59;5052021;28;20460;-86
2021/07/24 15:03:40;;;;;;;28.83;20.10;;;22.40;89.20;;;21.14;91.66;99861.53;5051981;28;20064;-85
2021/07/24 15:06:08;;;;;;;29.70;21.90;;;22.50;89.50;;;21.10;92.38;99849.34;5050890;28;20047;-86
2021/07/24 15:08:36;;;;;;;34.30;23.25;;;22.50;89.40;;;21.11;92.68;99842.69;5051272;28;20059;-86
2021/07/24 15:11:06;;;;;;;29.23;21.70;;;22.50;90.30;;;21.08;93.64;99832.19;5051295;28;20040;-86
2021/07/24 15:13:35;;;;;;;30.92;23.38;;;22.50;89.30;;;21.09;95.87;99825.53;5051814;28;20123;-86
2021/07/24 15:16:03;;;;;;;28.55;20.48;;;22.60;90.20;;;21.12;94.44;99827.75;5049368;28;20061;-85
2021/07/24 15:18:30;;;;;;;35.15;25.58;;;22.80;88.90;;;21.16;95.20;99820.59;5049990;28;20049;-86
2021/07/24 15:20:58;;;;;;;30.73;22.35;;;22.90;90.80;;;21.19;95.39;99824.72;5051086;28;20049;-86
2021/07/24 15:23:26;;;;;;;35.50;26.00;;;22.90;89.00;;;21.19;95.75;99821.97;5049927;28;20469;-86
2021/07/24 15:25:54;;;;;;;33.83;24.48;;;22.90;89.40;;;21.20;96.47;99818.09;5049609;28;20494;-86
2021/07/24 15:28:24;;;;;;;35.58;26.20;;;22.90;88.80;;;21.19;95.40;99821.97;5051216;28;20057;-86
2021/07/24 15:30:51;;;;;;;37.15;28.58;;;22.90;89.10;;;21.20;95.25;99818.94;5049899;28;20045;-86
2021/07/24 15:33:20;;;;;;;33.50;26.27;;;23.00;89.20;;;21.20;95.10;99820.88;5051398;28;20052;-86
2021/07/24 15:35:47;;;;;;;35.97;25.65;;;22.90;88.80;;;21.18;95.42;99817.53;5051002;28;20261;-86
2021/07/24 15:38:15;;;;;;;37.67;26.27;;;22.90;89.00;;;21.19;95.96;99811.75;5049554;28;20480;-86
2021/07/24 15:40:44;;;;;;;34.55;26.42;;;22.80;89.80;;;21.17;96.24;99810.34;5050852;28;20729;-86
2021/07/24 15:43:12;;;;;;;38.88;27.63;;;22.80;90.00;;;21.18;96.06;99803.72;5051001;28;20055;-86
2021/07/24 15:45:40;;;;;;;34.00;24.77;;;22.80;89.90;;;21.18;96.60;99807.31;5050688;28;20111;-86
2021/07/24 15:48:07;;;;;;;38.33;27.60;;;22.80;89.90;;;21.17;96.60;99811.19;5048775;28;20057;-86
2021/07/24 15:50:35;;;;;;;41.38;25.92;;;22.80;90.20;;;21.15;96.01;99809.78;5050658;28;20037;-86
2021/07/24 15:53:03;;;;;;;40.38;27.02;;;22.80;89.30;;;21.13;95.80;99804.50;5050714;28;20052;-86
2021/07/24 15:55:30;;;;;;;38.67;26.10;;;22.80;89.10;;;21.13;95.77;99810.03;5050558;28;20504;-85
2021/07/24 15:57:58;;;;;;;37.60;26.33;;;22.70;88.80;;;21.13;95.43;99812.81;5050025;28;20425;-86
2021/07/24 16:00:25;;;;;;;36.72;25.90;;;22.70;89.60;;;21.11;95.34;99814.19;5050436;28;20622;-85
2021/07/24 16:02:54;;;;;;;35.55;26.10;;;22.70;89.20;;;21.13;94.80;99806.47;5050612;28;20176;-86
2021/07/24 16:05:21;;;;;;;33.72;25.40;;;22.70;89.40;;;21.13;95.13;99803.69;5050731;28;20120;-87
2021/07/24 16:07:48;;;;;;;37.10;27.90;;;22.60;89.80;;;21.13;94.74;99795.38;5049931;28;20056;-86
2021/07/24 16:10:16;;;;;;;35.50;26.95;;;22.60;89.80;;;21.09;96.17;99795.94;5050423;28;20560;-86
2021/07/24 16:12:43;;;;;;;35.90;27.38;;;22.50;91.30;;;21.07;96.52;99789.00;5049152;28;20215;-86
2021/07/24 16:15:11;;;;;;;38.38;28.52;;;22.50;91.80;;;21.05;96.42;99789.28;5050156;28;20095;-86
2021/07/24 16:17:38;;;;;;;41.58;28.13;;;22.50;91.00;;;21.05;96.14;99794.81;5049579;28;20043;-86
2021/07/24 16:20:09;;;;;;;39.20;27.20;;;22.50;90.80;;;21.06;96.13;99788.19;5050169;28;20114;-86
2021/07/24 16:22:36;;;;;;;37.37;27.07;;;22.50;90.60;;;21.04;96.67;99784.03;5050360;28;20045;-86